createdAt,value
2023-03-14T00:00:01.259Z,35.93
2023-03-14T00:02:29.562Z,36.39
2023-03-14T00:04:57.385Z,36.21
2023-03-14T00:07:25.689Z,36.17
2023-03-14T00:09:52.192Z,36.29
2023-03-14T00:12:18.639Z,36.04
2023-03-14T00:14:45.469Z,36.42
2023-03-14T00:17:12.376Z,36.18
2023-03-14T00:19:38.815Z,36.02
2023-03-14T00:22:05.324Z,36.42
2023-03-14T00:24:31.743Z,36.44
2023-03-14T00:26:58.311Z,36.14
2023-03-14T00:29:25.413Z,36.20
2023-03-14T00:31:52.081Z,36.13
2023-03-14T00:34:18.583Z,36.33
2023-03-14T00:36:45.671Z,36.27
2023-03-14T00:39:13.110Z,36.06
2023-03-14T00:41:39.614Z,36.27
2023-03-14T00:44:06.062Z,36.21
2023-03-14T00:46:32.665Z,36.51
2023-03-14T00:48:59.685Z,36.42
2023-03-14T00:51:26.171Z,36.28
2023-03-14T00:53:53.148Z,36.13
2023-03-14T00:56:19.699Z,36.28
2023-03-14T00:58:46.267Z,36.51
2023-03-14T01:01:17.642Z,36.09
2023-03-14T01:03:45.204Z,36.34
2023-03-14T01:06:12.648Z,36.54
2023-03-14T01:08:39.166Z,36.67
2023-03-14T01:11:11.991Z,36.19
2023-03-14T01:13:38.552Z,36.31
2023-03-14T01:16:06.323Z,36.30
2023-03-14T01:18:37.689Z,36.66
2023-03-14T01:21:05.114Z,36.29
2023-03-14T01:23:31.618Z,36.65
2023-03-14T01:25:58.196Z,36.30
2023-03-14T01:28:24.881Z,36.37
2023-03-14T01:30:51.476Z,36.28
2023-03-14T01:33:18.552Z,36.24
2023-03-14T01:35:50.548Z,36.48
2023-03-14T01:38:17.621Z,36.43
2023-03-14T01:40:45.132Z,36.32
2023-03-14T01:43:16.480Z,36.28
2023-03-14T01:46:01.970Z,36.39
2023-03-14T01:48:29.886Z,36.39
2023-03-14T01:50:56.336Z,36.64
2023-03-14T01:53:22.879Z,36.65
2023-03-14T01:55:50.307Z,36.77
2023-03-14T01:58:16.882Z,36.24
2023-03-14T02:00:43.588Z,36.36
2023-03-14T02:03:11.516Z,36.59
2023-03-14T02:05:39.058Z,36.22
2023-03-14T02:08:15.627Z,36.20
2023-03-14T02:10:50.228Z,36.52
2023-03-14T02:13:21.916Z,36.85
2023-03-14T02:16:10.959Z,36.53
2023-03-14T02:19:00.364Z,36.41
2023-03-14T02:21:43.389Z,36.52
2023-03-14T02:24:13.408Z,36.57
2023-03-14T02:27:04.567Z,36.26
2023-03-14T02:29:31.835Z,36.93
2023-03-14T02:31:59.965Z,36.34
2023-03-14T02:34:26.419Z,36.31
2023-03-14T02:36:53.272Z,36.70
2023-03-14T02:39:25.698Z,36.49
2023-03-14T02:41:52.425Z,36.38
2023-03-14T02:44:19.417Z,36.55
2023-03-14T02:46:48.159Z,36.75
2023-03-14T02:49:15.342Z,36.42
2023-03-14T02:51:42.205Z,36.43
2023-03-14T02:54:08.787Z,36.83
2023-03-14T02:56:35.618Z,36.42
2023-03-14T02:59:05.835Z,36.90
2023-03-14T03:01:45.047Z,36.50
2023-03-14T03:04:11.567Z,36.85
2023-03-14T03:06:37.984Z,36.85
2023-03-14T03:09:06.462Z,36.38
2023-03-14T03:11:33.140Z,36.40
2023-03-14T03:13:59.947Z,36.90
2023-03-14T03:16:28.440Z,36.46
2023-03-14T03:18:55.630Z,36.86
2023-03-14T03:21:24.334Z,36.41
2023-03-14T03:23:51.637Z,36.73
2023-03-14T03:26:18.125Z,36.51
2023-03-14T03:28:44.734Z,36.54
2023-03-14T03:31:13.376Z,36.54
2023-03-14T03:33:40.088Z,36.75
2023-03-14T03:36:07.361Z,36.57
2023-03-14T03:38:37.086Z,36.54
2023-03-14T03:41:07.204Z,36.51
2023-03-14T03:43:34.028Z,36.26
2023-03-14T03:46:03.922Z,36.29
2023-03-14T03:48:30.729Z,36.58
2023-03-14T03:50:57.312Z,36.72
2023-03-14T03:53:33.331Z,36.88
2023-03-14T03:56:04.064Z,36.26
2023-03-14T03:58:30.535Z,36.54
2023-03-14T04:00:57.032Z,36.56
2023-03-14T04:03:23.841Z,36.26
2023-03-14T04:06:00.834Z,36.33
2023-03-14T04:08:27.460Z,36.32
2023-03-14T04:10:57.800Z,36.20
2023-03-14T04:13:37.844Z,36.56
2023-03-14T04:16:04.526Z,36.26
2023-03-14T04:18:31.394Z,36.68
2023-03-14T04:20:58.442Z,36.57
2023-03-14T04:23:32.313Z,36.12
2023-03-14T04:25:58.841Z,36.12
2023-03-14T04:28:27.431Z,36.55
2023-03-14T04:30:54.330Z,36.44
2023-03-14T04:33:23.473Z,36.68
2023-03-14T04:35:55.660Z,36.17
2023-03-14T04:38:22.553Z,36.28
2023-03-14T04:40:50.039Z,36.56
2023-03-14T04:43:18.475Z,36.28
2023-03-14T04:45:50.311Z,36.42
2023-03-14T04:48:17.710Z,36.16
2023-03-14T04:50:44.518Z,36.17
2023-03-14T04:53:11.273Z,36.29
2023-03-14T04:55:40.066Z,36.57
2023-03-14T04:58:06.628Z,36.28
2023-03-14T05:00:33.495Z,36.25
2023-03-14T05:03:19.608Z,36.36
2023-03-14T05:06:01.761Z,36.39
2023-03-14T05:08:57.193Z,36.66
2023-03-14T05:11:37.760Z,36.13
2023-03-14T05:14:13.305Z,36.60
2023-03-14T05:16:54.206Z,36.39
2023-03-14T05:19:36.267Z,36.33
2023-03-14T05:22:12.535Z,36.44
2023-03-14T05:25:01.236Z,36.19
2023-03-14T05:27:48.306Z,36.31
2023-03-14T05:30:34.746Z,36.16
2023-03-14T05:33:27.263Z,36.19
2023-03-14T05:35:59.777Z,36.21
2023-03-14T05:38:55.434Z,36.48
2023-03-14T05:41:48.836Z,36.14
2023-03-14T05:44:22.871Z,36.12
2023-03-14T05:47:02.547Z,36.47
2023-03-14T05:49:49.459Z,36.09
2023-03-14T05:52:32.807Z,36.31
2023-03-14T05:55:09.787Z,36.54
2023-03-14T05:57:55.175Z,36.51
2023-03-14T06:00:30.645Z,36.13
2023-03-14T06:03:11.589Z,35.44
2023-03-14T06:05:43.236Z,35.83
2023-03-14T06:08:09.953Z,36.07
2023-03-14T06:10:37.387Z,36.40
2023-03-14T06:13:05.418Z,36.40
2023-03-14T06:15:34.001Z,36.10
2023-03-14T06:18:00.804Z,36.58
2023-03-14T06:20:28.337Z,36.62
2023-03-14T06:22:55.013Z,36.57
2023-03-14T06:25:21.616Z,36.40
2023-03-14T06:27:48.884Z,36.43
2023-03-14T06:30:16.507Z,36.59
2023-03-14T06:32:43.497Z,36.83
2023-03-14T06:35:13.089Z,36.82
2023-03-14T06:37:42.589Z,36.34
2023-03-14T06:40:10.017Z,36.73
2023-03-14T06:42:53.588Z,36.25
2023-03-14T06:45:22.055Z,36.47
2023-03-14T06:47:48.753Z,36.61
2023-03-14T06:50:17.325Z,36.87
2023-03-14T06:52:49.189Z,36.75
2023-03-14T06:55:22.750Z,36.88
2023-03-14T06:57:50.091Z,37.02
2023-03-14T07:00:17.171Z,36.39
2023-03-14T07:02:43.835Z,36.60
2023-03-14T07:05:30.561Z,36.89
2023-03-14T07:07:58.963Z,37.27
2023-03-14T07:10:26.521Z,37.00
2023-03-14T07:12:53.817Z,37.24
2023-03-14T07:15:22.099Z,37.18
2023-03-14T07:17:55.021Z,37.09
2023-03-14T07:20:23.790Z,36.61
2023-03-14T07:22:51.161Z,36.63
2023-03-14T07:25:22.402Z,37.21
2023-03-14T07:27:49.145Z,36.68
2023-03-14T07:30:17.200Z,37.32
2023-03-14T07:32:43.929Z,36.71
2023-03-14T07:35:10.800Z,36.83
2023-03-14T07:37:39.846Z,37.25
2023-03-14T07:40:08.252Z,36.89
2023-03-14T07:42:36.737Z,36.70
2023-03-14T07:45:19.264Z,37.06
2023-03-14T07:47:47.762Z,37.21
2023-03-14T07:50:14.205Z,36.88
2023-03-14T07:52:40.695Z,36.59
2023-03-14T07:55:07.321Z,37.06
2023-03-14T07:57:33.860Z,36.95
2023-03-14T08:00:00.344Z,36.75
2023-03-14T08:02:26.856Z,36.79
2023-03-14T08:04:53.365Z,36.80
2023-03-14T08:07:19.882Z,36.86
2023-03-14T08:09:46.367Z,37.27
2023-03-14T08:12:12.867Z,37.20
2023-03-14T08:14:39.818Z,36.97
2023-03-14T08:17:09.073Z,36.71
2023-03-14T08:19:35.573Z,36.69
2023-03-14T08:22:02.091Z,36.82
2023-03-14T08:24:29.055Z,36.78
2023-03-14T08:26:55.577Z,37.04
2023-03-14T08:29:22.747Z,36.98
2023-03-14T08:31:50.041Z,36.72
2023-03-14T08:34:16.688Z,36.90
2023-03-14T08:36:43.356Z,37.13
2023-03-14T08:39:09.902Z,37.00
2023-03-14T08:41:42.077Z,37.18
2023-03-14T08:44:09.078Z,36.86
2023-03-14T08:46:35.613Z,36.99
2023-03-14T08:49:02.164Z,37.06
2023-03-14T08:51:28.701Z,36.99
2023-03-14T08:53:55.338Z,36.78
2023-03-14T08:56:23.810Z,36.87
2023-03-14T08:58:51.521Z,37.01
2023-03-14T09:01:20.181Z,36.97
2023-03-14T09:03:49.304Z,36.58
2023-03-14T09:06:18.861Z,36.73
2023-03-14T09:08:46.016Z,37.05
2023-03-14T09:11:12.531Z,37.32
2023-03-14T09:13:39.238Z,36.91
2023-03-14T09:16:05.916Z,37.35
2023-03-14T09:18:32.405Z,37.40
2023-03-14T09:20:58.905Z,37.34
2023-03-14T09:23:25.488Z,37.04
2023-03-14T09:25:55.937Z,37.38
2023-03-14T09:28:22.547Z,37.45
2023-03-14T09:30:49.055Z,37.11
2023-03-14T09:33:15.635Z,36.89
2023-03-14T09:35:43.073Z,37.11
2023-03-14T09:38:09.575Z,36.81
2023-03-14T09:40:36.436Z,37.15
2023-03-14T09:43:03.609Z,36.88
2023-03-14T09:45:37.920Z,36.75
2023-03-14T09:48:05.253Z,36.27
2023-03-14T09:50:38.943Z,36.17
2023-03-14T09:53:07.837Z,36.70
2023-03-14T09:55:36.668Z,36.88
2023-03-14T09:58:04.674Z,36.69
2023-03-14T10:00:31.697Z,36.54
2023-03-14T10:03:03.137Z,37.03
2023-03-14T10:05:30.694Z,36.49
2023-03-14T10:07:57.473Z,36.51
2023-03-14T10:10:25.358Z,35.68
2023-03-14T10:12:58.576Z,35.49
2023-03-14T10:15:26.728Z,35.69
2023-03-14T10:17:53.297Z,35.77
2023-03-14T10:20:36.268Z,36.34
2023-03-14T10:23:23.038Z,35.86
2023-03-14T10:26:06.679Z,36.33
2023-03-14T10:28:35.585Z,36.13
2023-03-14T10:31:02.112Z,36.23
2023-03-14T10:33:30.266Z,36.54
2023-03-14T10:35:58.122Z,36.69
2023-03-14T10:38:26.626Z,36.27
2023-03-14T10:40:54.208Z,36.21
2023-03-14T10:43:25.658Z,36.39
2023-03-14T10:45:53.515Z,36.15
2023-03-14T10:48:24.647Z,36.26
2023-03-14T10:50:55.940Z,36.68
2023-03-14T10:53:22.438Z,36.50
2023-03-14T10:55:50.273Z,36.65
2023-03-14T10:58:21.182Z,36.10
2023-03-14T11:00:48.626Z,36.41
2023-03-14T11:03:15.260Z,36.71
2023-03-14T11:05:44.958Z,36.70
2023-03-14T11:08:20.665Z,36.51
2023-03-14T11:10:48.739Z,36.71
2023-03-14T11:13:17.391Z,36.28
2023-03-14T11:15:48.444Z,36.28
2023-03-14T11:18:17.826Z,36.50
2023-03-14T11:20:46.119Z,36.47
2023-03-14T11:23:14.878Z,36.17
2023-03-14T11:25:41.289Z,36.44
2023-03-14T11:28:11.578Z,36.57
2023-03-14T11:30:40.581Z,36.54
2023-03-14T11:33:10.215Z,36.44
2023-03-14T11:35:55.139Z,36.30
2023-03-14T11:38:40.379Z,36.20
2023-03-14T11:41:10.900Z,36.22
2023-03-14T11:43:41.137Z,36.12
2023-03-14T11:46:10.632Z,36.44
2023-03-14T11:48:42.292Z,36.54
2023-03-14T11:51:10.674Z,36.39
2023-03-14T11:53:40.769Z,36.13
2023-03-14T11:56:11.706Z,36.61
2023-03-14T11:58:38.265Z,36.39
2023-03-14T12:01:07.845Z,36.25
2023-03-14T12:03:42.938Z,36.40
2023-03-14T12:06:28.323Z,36.26
2023-03-14T12:08:55.277Z,36.67
2023-03-14T12:11:23.306Z,36.51
2023-03-14T12:13:50.996Z,36.50
2023-03-14T12:16:23.505Z,36.62
2023-03-14T12:18:50.262Z,36.93
2023-03-14T12:21:16.871Z,36.73
2023-03-14T12:23:50.174Z,37.01
2023-03-14T12:26:18.712Z,36.93
2023-03-14T12:28:50.947Z,37.31
2023-03-14T12:31:30.455Z,37.24
2023-03-14T12:34:13.018Z,36.99
2023-03-14T12:36:42.643Z,37.21
2023-03-14T12:39:27.833Z,37.23
2023-03-14T12:42:02.309Z,37.38
2023-03-14T12:44:32.095Z,37.36
2023-03-14T12:47:01.691Z,37.13
2023-03-14T12:49:32.034Z,37.43
2023-03-14T12:52:01.835Z,37.25
2023-03-14T12:54:49.156Z,37.01
2023-03-14T12:57:26.522Z,37.19
2023-03-14T12:59:53.676Z,37.05
2023-03-14T13:02:26.208Z,37.17
2023-03-14T13:04:53.971Z,37.22
2023-03-14T13:07:31.563Z,36.61
2023-03-14T13:13:00.612Z,37.37
2023-03-14T13:15:28.904Z,37.56
2023-03-14T13:17:56.096Z,36.91
2023-03-14T13:20:28.800Z,37.06
2023-03-14T13:22:56.011Z,37.32
2023-03-14T13:25:23.588Z,36.93
2023-03-14T13:27:50.780Z,37.10
2023-03-14T13:30:23.330Z,37.36
2023-03-14T13:32:51.177Z,37.18
2023-03-14T13:35:30.111Z,37.18
2023-03-14T13:38:11.910Z,37.32
2023-03-14T13:40:39.157Z,37.28
2023-03-14T13:43:16.566Z,36.92
2023-03-14T13:45:53.540Z,37.18
2023-03-14T13:48:20.280Z,37.10
2023-03-14T13:50:47.708Z,37.35
2023-03-14T13:53:14.227Z,37.44
2023-03-14T13:55:40.697Z,37.44
2023-03-14T13:58:11.778Z,36.96
2023-03-14T14:00:38.300Z,36.94
2023-03-14T14:03:04.727Z,36.88
2023-03-14T14:05:32.911Z,37.38
2023-03-14T14:07:59.402Z,37.59
2023-03-14T14:10:26.931Z,37.29
2023-03-14T14:12:58.541Z,37.60
2023-03-14T14:15:27.311Z,37.16
2023-03-14T14:18:04.020Z,37.53
2023-03-14T14:20:33.364Z,37.41
2023-03-14T14:23:00.304Z,37.57
2023-03-14T14:25:26.766Z,37.48
2023-03-14T14:27:53.371Z,37.11
2023-03-14T14:30:19.823Z,37.22
2023-03-14T14:32:47.033Z,37.35
2023-03-14T14:35:26.990Z,37.40
2023-03-14T14:37:53.498Z,37.50
2023-03-14T14:40:21.096Z,37.16
2023-03-14T14:42:47.723Z,37.48
2023-03-14T14:45:15.935Z,37.50
2023-03-14T14:47:52.378Z,37.62
2023-03-14T14:50:32.124Z,37.67
2023-03-14T14:52:59.253Z,37.22
2023-03-14T14:55:29.920Z,37.67
2023-03-14T14:57:59.078Z,37.77
2023-03-14T15:00:27.517Z,37.80
2023-03-14T15:02:59.924Z,37.33
2023-03-14T15:05:27.457Z,37.89
2023-03-14T15:07:55.703Z,37.75
2023-03-14T15:10:24.044Z,37.92
2023-03-14T15:12:50.591Z,37.29
2023-03-14T15:15:17.585Z,37.50
2023-03-14T15:17:45.968Z,37.65
2023-03-14T15:20:14.218Z,37.58
2023-03-14T15:22:41.217Z,37.25
2023-03-14T15:25:13.006Z,37.81
2023-03-14T15:27:45.534Z,37.55
2023-03-14T15:30:15.203Z,37.60
2023-03-14T15:32:41.701Z,37.30
2023-03-14T15:35:08.496Z,37.64
2023-03-14T15:37:35.041Z,37.75
2023-03-14T15:40:01.974Z,37.76
2023-03-14T15:42:28.585Z,37.35
2023-03-14T15:44:55.266Z,37.72
2023-03-14T15:47:21.990Z,37.60
2023-03-14T15:49:49.090Z,37.39
2023-03-14T15:52:15.818Z,37.83
2023-03-14T15:54:42.337Z,37.49
2023-03-14T15:57:11.006Z,37.39
2023-03-14T15:59:37.544Z,37.69
2023-03-14T16:02:04.084Z,37.49
2023-03-14T16:04:30.642Z,37.82
2023-03-14T16:06:57.222Z,37.45
2023-03-14T16:09:25.022Z,37.77
2023-03-14T16:11:51.489Z,37.77
2023-03-14T16:14:17.918Z,37.97
2023-03-14T16:16:44.675Z,37.60
2023-03-14T16:19:11.228Z,37.85
2023-03-14T16:21:38.640Z,37.50
2023-03-14T16:24:06.931Z,37.87
2023-03-14T16:26:35.173Z,38.40
2023-03-14T16:29:01.692Z,38.67
2023-03-14T16:31:29.215Z,38.05
2023-03-14T16:34:03.530Z,37.80
2023-03-14T16:36:30.371Z,37.69
2023-03-14T16:38:56.880Z,38.31
2023-03-14T16:41:23.513Z,38.10
2023-03-14T16:43:52.297Z,38.53
2023-03-14T16:46:19.281Z,37.92
2023-03-14T16:48:45.985Z,37.79
2023-03-14T16:51:14.092Z,38.39
2023-03-14T16:53:40.565Z,37.89
2023-03-14T16:56:07.392Z,38.12
2023-03-14T16:58:33.864Z,38.15
2023-03-14T17:01:10.417Z,38.28
2023-03-14T17:03:38.294Z,38.30
2023-03-14T17:06:04.813Z,37.92
2023-03-14T17:08:31.384Z,38.03
2023-03-14T17:10:57.864Z,37.79
2023-03-14T17:13:25.896Z,38.16
2023-03-14T17:15:52.979Z,37.85
2023-03-14T17:18:19.546Z,37.97
2023-03-14T17:20:46.040Z,38.04
2023-03-14T17:23:12.544Z,37.80
2023-03-14T17:25:39.094Z,37.36
2023-03-14T17:28:06.079Z,37.34
2023-03-14T17:30:32.572Z,37.49
2023-03-14T17:32:59.077Z,37.46
2023-03-14T17:35:25.734Z,37.82
2023-03-14T17:37:52.197Z,37.72
2023-03-14T17:40:18.652Z,36.92
2023-03-14T17:42:47.045Z,37.01
2023-03-14T17:45:13.503Z,37.71
2023-03-14T17:47:40.067Z,37.21
2023-03-14T17:50:06.753Z,37.31
2023-03-14T17:52:33.833Z,37.03
2023-03-14T17:55:00.649Z,37.21
2023-03-14T17:57:27.353Z,37.29
2023-03-14T17:59:53.991Z,37.10
2023-03-14T18:02:21.183Z,37.37
2023-03-14T18:04:48.040Z,37.01
2023-03-14T18:07:14.739Z,37.31
2023-03-14T18:09:41.736Z,37.04
2023-03-14T18:12:08.785Z,37.29
2023-03-14T18:14:36.580Z,37.14
2023-03-14T18:17:03.157Z,37.37
2023-03-14T18:19:29.584Z,37.01
2023-03-14T18:21:56.121Z,37.25
2023-03-14T18:24:23.291Z,37.11
2023-03-14T18:26:49.967Z,36.61
2023-03-14T18:29:17.368Z,37.31
2023-03-14T18:31:44.350Z,37.15
2023-03-14T18:34:10.970Z,37.11
2023-03-14T18:36:37.907Z,36.89
2023-03-14T18:39:07.379Z,37.07
2023-03-14T18:41:34.909Z,37.32
2023-03-14T18:44:01.674Z,37.35
2023-03-14T18:46:28.206Z,36.98
2023-03-14T18:49:03.689Z,36.84
2023-03-14T18:51:30.978Z,36.88
2023-03-14T18:54:08.941Z,37.11
2023-03-14T18:56:36.974Z,36.82
2023-03-14T18:59:03.836Z,36.97
2023-03-14T19:01:31.436Z,36.59
2023-03-14T19:04:02.591Z,36.65
2023-03-14T19:06:31.850Z,36.83
2023-03-14T19:08:58.448Z,36.78
2023-03-14T19:11:26.680Z,37.04
2023-03-14T19:13:54.807Z,37.09
2023-03-14T19:16:22.460Z,36.50
2023-03-14T19:18:49.491Z,36.78
2023-03-14T19:21:21.228Z,36.73
2023-03-14T19:23:48.983Z,37.22
2023-03-14T19:26:16.505Z,36.82
2023-03-14T19:28:42.960Z,36.95
2023-03-14T19:31:10.059Z,36.68
2023-03-14T19:33:37.515Z,36.76
2023-03-14T19:36:04.136Z,36.74
2023-03-14T19:38:30.704Z,37.05
2023-03-14T19:40:58.278Z,36.72
2023-03-14T19:43:25.198Z,36.88
2023-03-14T19:45:51.793Z,36.66
2023-03-14T19:48:18.418Z,36.50
2023-03-14T19:50:44.858Z,36.52
2023-03-14T19:53:11.333Z,36.54
2023-03-14T19:55:38.643Z,36.31
2023-03-14T19:58:05.352Z,36.89
2023-03-14T20:00:31.837Z,36.78
2023-03-14T20:02:59.517Z,36.92
2023-03-14T20:05:26.137Z,36.70
2023-03-14T20:07:52.664Z,36.32
2023-03-14T20:10:23.125Z,36.23
2023-03-14T20:12:50.653Z,36.82
2023-03-14T20:15:21.684Z,36.63
2023-03-14T20:17:48.918Z,36.16
2023-03-14T20:20:20.099Z,36.03
2023-03-14T20:22:47.136Z,36.18
2023-03-14T20:25:14.653Z,36.24
2023-03-14T20:27:42.179Z,36.29
2023-03-14T20:30:12.511Z,36.44
2023-03-14T20:32:39.726Z,36.36
2023-03-14T20:35:07.145Z,36.05
2023-03-14T20:37:33.894Z,36.34
2023-03-14T20:40:00.417Z,36.37
2023-03-14T20:42:27.604Z,36.25
2023-03-14T20:44:54.501Z,36.19
2023-03-14T20:47:21.198Z,36.13
2023-03-14T20:49:47.815Z,36.24
2023-03-14T20:52:15.483Z,36.23
2023-03-14T20:54:41.962Z,35.91
2023-03-14T20:57:08.597Z,35.72
2023-03-14T20:59:35.161Z,36.06
2023-03-14T21:02:01.804Z,35.69
2023-03-14T21:04:28.407Z,35.58
2023-03-14T21:06:55.532Z,35.93
2023-03-14T21:09:25.190Z,35.75
2023-03-14T21:11:51.803Z,35.98
2023-03-14T21:14:18.766Z,35.63
2023-03-14T21:16:45.598Z,35.30
2023-03-14T21:19:12.203Z,35.43
2023-03-14T21:21:38.796Z,35.50
2023-03-14T21:24:05.566Z,35.35
2023-03-14T21:26:32.167Z,35.38
2023-03-14T21:28:59.004Z,35.56
2023-03-14T21:31:26.876Z,35.42
2023-03-14T21:33:54.586Z,35.50
2023-03-14T21:36:21.353Z,35.43
2023-03-14T21:38:47.802Z,34.98
2023-03-14T21:41:14.357Z,35.30
2023-03-14T21:43:41.411Z,35.45
2023-03-14T21:46:07.987Z,34.84
2023-03-14T21:48:34.487Z,34.74
2023-03-14T21:51:05.304Z,34.19
2023-03-14T21:53:32.436Z,34.50
2023-03-14T21:55:58.954Z,34.37
2023-03-14T21:58:26.061Z,34.57
2023-03-14T22:00:52.725Z,34.29
2023-03-14T22:03:20.097Z,34.33
2023-03-14T22:05:47.125Z,34.43
2023-03-14T22:08:13.956Z,34.56
2023-03-14T22:10:47.408Z,34.57
2023-03-14T22:13:14.218Z,34.71
2023-03-14T22:15:41.527Z,34.18
2023-03-14T22:18:08.008Z,34.11
2023-03-14T22:20:36.379Z,34.31
2023-03-14T22:23:03.126Z,34.30
2023-03-14T22:25:29.647Z,34.38
2023-03-14T22:27:56.140Z,34.82
2023-03-14T22:30:22.690Z,34.68
2023-03-14T22:32:49.379Z,34.31
2023-03-14T22:35:15.979Z,34.40
2023-03-14T22:37:42.487Z,34.74
2023-03-14T22:40:09.598Z,34.70
2023-03-14T22:42:36.319Z,34.28
2023-03-14T22:45:03.357Z,34.78
2023-03-14T22:47:29.855Z,34.31
2023-03-14T22:49:56.361Z,34.46
2023-03-14T22:52:22.858Z,34.86
2023-03-14T22:54:49.491Z,34.56
2023-03-14T22:57:16.133Z,34.81
2023-03-14T22:59:42.653Z,34.42
2023-03-14T23:02:09.175Z,34.77
2023-03-14T23:04:35.627Z,34.79
2023-03-14T23:07:02.340Z,34.86
2023-03-14T23:09:28.770Z,34.67
2023-03-14T23:11:55.307Z,34.38
2023-03-14T23:14:23.044Z,34.64
2023-03-14T23:16:49.976Z,35.02
2023-03-14T23:19:16.500Z,34.86
2023-03-14T23:21:42.955Z,34.94
2023-03-14T23:24:09.389Z,34.57
2023-03-14T23:26:36.129Z,34.73
2023-03-14T23:29:05.423Z,34.42
2023-03-14T23:31:32.397Z,34.51
2023-03-14T23:33:59.303Z,34.62
2023-03-14T23:36:26.455Z,34.80
2023-03-14T23:38:52.989Z,35.00
2023-03-14T23:41:19.514Z,34.77
2023-03-14T23:43:46.516Z,34.74
2023-03-14T23:46:13.476Z,34.61
2023-03-14T23:48:40.012Z,34.39
2023-03-14T23:51:07.442Z,34.55
2023-03-14T23:53:34.694Z,34.77
2023-03-14T23:56:01.439Z,34.90
2023-03-14T23:58:27.868Z,34.34
